Time;durP1;ratioP1;P1;durP2;ratioP2;P2;SDS_P1;SDS_P2;PMS_P1;PMS_P2;Temp;Humidity;BMP_temperature;BMP_pressure;BME280_temperature;BME280_humidity;BME280_pressure;Samples;Min_cycle;Max_cycle;Signal;HPM_P1;HPM_P2
2023/06/09 00:02:18;;;;;;;16.80;9.75;;;;;;;13.75;100.00;99458.44;5099444;27;20092;-76
2023/06/09 00:05:02;;;;;;;16.52;9.90;;;;;;;13.24;100.00;99450.13;5103802;27;20050;-76
2023/06/09 00:07:47;;;;;;;;;;;;;;;13.70;100.00;99456.44;5115911;27;20050;-74
2023/06/09 00:10:31;;;;;;;13.65;10.60;;;;;;;13.71;100.00;99457.22;5124029;27;20402;-77
2023/06/09 00:13:15;;;;;;;17.25;10.93;;;;;;;13.69;100.00;99444.25;5104106;27;20102;-76
2023/06/09 00:15:59;;;;;;;16.50;11.52;;;;;;;13.44;100.00;99449.34;5120557;27;20039;-77
2023/06/09 00:18:45;;;;;;;20.88;11.13;;;;;;;13.45;100.00;99442.22;5118572;27;20058;-77
2023/06/09 00:21:30;;;;;;;16.20;12.23;;;;;;;13.51;100.00;99447.50;5121205;27;20047;-77
2023/06/09 00:24:14;;;;;;;21.52;13.13;;;;;;;13.27;100.00;99446.28;5122471;27;20070;-77
2023/06/09 00:26:58;;;;;;;24.08;14.38;;;;;;;13.38;100.00;99442.22;5119080;27;20092;-77
2023/06/09 00:29:42;;;;;;;24.90;14.02;;;;;;;13.42;100.00;99427.59;5121650;27;20450;-76
2023/06/09 00:32:27;;;;;;;23.67;14.85;;;;;;;13.50;100.00;99432.69;5121034;27;20046;-77
2023/06/09 00:35:12;;;;;;;25.88;15.65;;;;;;;13.47;100.00;99430.47;5124763;27;20492;-77
2023/06/09 00:37:56;;;;;;;23.45;15.98;;;;;;;13.64;100.00;99432.69;5120807;27;20393;-77
2023/06/09 00:40:41;;;;;;;26.95;16.17;;;;;;;13.52;100.00;99427.22;5123817;27;20034;-76
2023/06/09 00:43:25;;;;;;;26.92;16.25;;;;;;;13.33;100.00;99421.72;5122527;27;20499;-76
2023/06/09 00:46:09;;;;;;;22.98;16.30;;;;;;;13.67;100.00;99419.09;5124553;27;20085;-75
2023/06/09 00:48:53;;;;;;;24.95;17.25;;;;;;;13.65;100.00;99416.66;5105336;27;20046;-76
2023/06/09 00:51:38;;;;;;;25.58;16.98;;;;;;;13.75;100.00;99413.59;5118312;27;20066;-77
2023/06/09 00:54:22;;;;;;;26.77;17.40;;;;;;;13.60;100.00;99419.09;5121548;27;20041;-77
2023/06/09 00:57:07;;;;;;;27.75;18.48;;;;;;;13.39;100.00;99412.19;5126165;27;20192;-76
2023/06/09 00:59:51;;;;;;;24.17;16.83;;;;;;;13.53;100.00;99413.03;5119859;27;20446;-77
2023/06/09 01:02:38;;;;;;;24.92;16.30;;;;;;;13.50;100.00;99408.97;5122545;27;20054;-76
2023/06/09 01:05:22;;;;;;;24.20;15.20;;;;;;;13.50;100.00;99419.50;5121212;27;20043;-76
2023/06/09 01:08:12;;;;;;;24.25;14.98;;;;;;;13.41;100.00;99418.88;5118509;27;20550;-76
2023/06/09 01:11:00;;;;;;;22.35;13.50;;;;;;;13.33;100.00;99413.81;5120661;27;20042;-76
2023/06/09 01:13:50;;;;;;;22.52;13.75;;;;;;;13.45;100.00;99413.22;5124624;27;20054;-77
2023/06/09 01:17:08;;;;;;;18.73;12.27;;;;;;;13.19;100.00;99423.56;5103255;27;20043;-75
2023/06/09 01:19:57;;;;;;;21.00;12.07;;;;;;;13.16;100.00;99418.66;5120694;27;20102;-76
2023/06/09 01:22:58;;;;;;;22.02;11.88;;;;;;;13.14;100.00;99410.16;5121642;27;20110;-75
2023/06/09 01:25:46;;;;;;;19.75;9.10;;;;;;;13.49;100.00;99417.88;5121868;27;20039;-76
2023/06/09 01:28:30;;;;;;;15.25;9.38;;;;;;;13.38;100.00;99413.22;5122065;27;20043;-75
2023/06/09 01:31:15;;;;;;;13.52;10.45;;;;;;;13.13;100.00;99412.00;5117750;27;20054;-76
2023/06/09 01:34:01;;;;;;;14.48;9.88;;;;;;;13.35;100.00;99416.22;5109489;27;20049;-76
2023/06/09 01:36:47;;;;;;;17.60;10.35;;;;;;;13.43;100.00;99416.06;5118018;27;20050;-76
2023/06/09 01:39:32;;;;;;;13.43;10.15;;;;;;;13.47;100.00;99413.84;5105815;27;20045;-75
2023/06/09 01:42:16;;;;;;;23.15;12.65;;;;;;;13.34;100.00;99422.53;5119558;27;20034;-76
2023/06/09 01:45:03;;;;;;;19.48;12.57;;;;;;;13.13;100.00;99409.34;5117582;27;20049;-76
2023/06/09 01:47:48;;;;;;;19.60;12.18;;;;;;;13.27;100.00;99425.97;5118321;27;20079;-76
2023/06/09 01:50:51;;;;;;;17.20;13.18;;;;;;;13.59;100.00;99416.69;5117645;27;20136;-75
2023/06/09 01:53:39;;;;;;;24.97;14.13;;;;;;;13.51;100.00;99421.13;5119664;27;20046;-75
2023/06/09 01:56:44;;;;;;;28.92;16.35;;;;;;;13.34;100.00;99415.44;5117787;27;20508;-75
2023/06/09 01:59:59;;;;;;;25.60;15.77;;;;;;;13.32;100.00;99422.75;5118648;27;20050;-76
2023/06/09 02:02:47;;;;;;;31.65;17.20;;;;;;;13.20;100.00;99425.19;5115965;27;20384;-76
2023/06/09 02:05:33;;;;;;;25.10;17.15;;;;;;;13.49;100.00;99411.81;5121450;27;20054;-76
2023/06/09 02:08:18;;;;;;;22.77;16.50;;;;;;;13.46;100.00;99399.00;5127474;27;20074;-76
2023/06/09 02:11:02;;;;;;;25.13;16.73;;;;;;;13.20;100.00;99421.72;5118600;27;20043;-76
2023/06/09 02:13:53;;;;;;;24.75;16.73;;;;;;;13.43;100.00;99408.16;5120082;27;20454;-76
2023/06/09 02:16:37;;;;;;;22.65;14.95;;;;;;;13.36;100.00;99399.41;5121184;27;20449;-76
2023/06/09 02:19:22;;;;;;;26.30;15.85;;;;;;;13.62;100.00;99405.72;5122223;27;20050;-76
2023/06/09 02:22:06;;;;;;;28.20;15.82;;;;;;;13.54;100.00;99399.63;5115679;27;20038;-76
2023/06/09 02:24:50;;;;;;;23.25;14.55;;;;;;;13.14;100.00;99396.97;5118647;27;20459;-75
2023/06/09 02:27:34;;;;;;;28.15;15.85;;;;;;;13.39;100.00;99399.81;5120513;27;20042;-75
2023/06/09 02:30:18;;;;;;;22.42;15.60;;;;;;;13.53;100.00;99395.34;5106451;28;20041;-76
2023/06/09 02:33:02;;;;;;;22.25;14.38;;;;;;;13.28;100.00;99392.53;5117596;28;20119;-75
2023/06/09 02:35:47;;;;;;;25.52;14.85;;;;;;;13.24;100.00;99378.94;5118287;28;20083;-75
2023/06/09 02:38:31;;;;;;;25.33;15.13;;;;;;;13.17;100.00;99386.06;5120510;28;20103;-77
2023/06/09 02:41:15;;;;;;;26.95;16.02;;;;;;;13.51;100.00;99392.13;5118466;28;20587;-76
2023/06/09 02:43:59;;;;;;;26.05;16.02;;;;;;;13.31;100.00;99386.03;5121416;28;20046;-77
2023/06/09 02:46:44;;;;;;;23.48;16.33;;;;;;;13.41;100.00;99389.88;5119667;28;20514;-77
2023/06/09 02:49:28;;;;;;;29.73;18.38;;;;;;;13.29;100.00;99392.31;5120256;28;20030;-76
2023/06/09 02:52:12;;;;;;;32.28;21.23;;;;;;;13.31;100.00;99383.38;5124686;27;20035;-76
2023/06/09 02:54:56;;;;;;;38.92;20.95;;;;;;;13.38;100.00;99385.00;5124852;27;20461;-77
2023/06/09 02:57:40;;;;;;;29.73;20.73;;;;;;;13.31;100.00;99383.38;5118799;27;20107;-76
2023/06/09 03:00:25;;;;;;;34.35;20.63;;;;;;;13.34;100.00;99373.25;5104706;27;20069;-76
2023/06/09 03:03:10;;;;;;;30.77;20.48;;;;;;;13.23;100.00;99373.84;5107778;27;20115;-78
2023/06/09 03:05:55;;;;;;;27.13;18.33;;;;;;;13.03;100.00;99371.25;5120410;27;20038;-77
2023/06/09 03:08:40;;;;;;;33.97;20.90;;;;;;;12.90;100.00;99362.31;5125975;27;20038;-76
2023/06/09 03:11:24;;;;;;;32.80;19.60;;;;;;;13.11;100.00;99369.22;5124882;27;20038;-77
2023/06/09 03:14:08;;;;;;;27.73;19.17;;;;;;;12.92;100.00;99370.81;5126545;27;20507;-76
2023/06/09 03:16:53;;;;;;;30.52;20.65;;;;;;;12.94;100.00;99366.16;5121041;27;20126;-76
2023/06/09 03:19:38;;;;;;;32.22;18.95;;;;;;;13.18;100.00;99366.59;5125505;27;20167;-77
2023/06/09 03:22:22;;;;;;;32.13;20.55;;;;;;;12.95;100.00;99365.13;5113339;27;20536;-77
2023/06/09 03:25:06;;;;;;;29.02;18.88;;;;;;;12.91;100.00;99349.94;5124313;27;20080;-77
2023/06/09 03:27:51;;;;;;;29.88;19.10;;;;;;;12.88;100.00;99353.78;5120606;27;20051;-76
2023/06/09 03:30:35;;;;;;;26.38;17.10;;;;;;;12.79;100.00;99355.00;5119570;27;20051;-76
2023/06/09 03:33:20;;;;;;;27.25;19.08;;;;;;;12.49;100.00;99355.34;5127772;27;20416;-77
2023/06/09 03:36:04;;;;;;;31.05;20.10;;;;;;;12.80;100.00;99361.91;5124123;27;20503;-77
2023/06/09 03:38:48;;;;;;;34.58;22.80;;;;;;;13.12;100.00;99355.03;5127159;27;20384;-77
2023/06/09 03:41:35;;;;;;;35.53;22.73;;;;;;;13.11;100.00;99342.84;5122483;27;20046;-77
2023/06/09 03:44:20;;;;;;;35.47;23.65;;;;;;;12.78;100.00;99350.75;5119033;27;20088;-77
2023/06/09 03:47:06;;;;;;;38.80;24.60;;;;;;;12.63;100.00;99358.81;5124214;27;20970;-76
2023/06/09 03:49:50;;;;;;;33.45;22.92;;;;;;;12.69;100.00;99358.84;5119580;27;20042;-76
2023/06/09 03:52:36;;;;;;;36.17;23.38;;;;;;;12.64;100.00;99348.09;5119445;27;20096;-76
2023/06/09 03:55:22;;;;;;;36.08;24.08;;;;;;;12.71;100.00;99351.53;5109723;27;20096;-76
2023/06/09 03:58:06;;;;;;;39.83;23.70;;;;;;;12.67;100.00;99354.78;5122258;27;20405;-76
2023/06/09 04:00:51;;;;;;;33.35;22.55;;;;;;;12.59;100.00;99347.91;5107683;27;20169;-76
2023/06/09 04:03:35;;;;;;;42.35;24.08;;;;;;;12.84;100.00;99347.31;5124888;27;20130;-77
2023/06/09 04:06:19;;;;;;;32.03;22.15;;;;;;;12.52;100.00;99341.78;5132673;27;20107;-77
2023/06/09 04:09:03;;;;;;;33.50;22.67;;;;;;;12.73;100.00;99346.09;5105403;27;20055;-76
2023/06/09 04:11:47;;;;;;;30.70;20.00;;;;;;;12.03;100.00;99339.22;5119753;27;20047;-76
2023/06/09 04:14:31;;;;;;;32.55;18.45;;;;;;;12.74;100.00;99346.88;5124163;27;20162;-76
2023/06/09 04:17:15;;;;;;;31.27;19.55;;;;;;;12.74;100.00;99333.72;5123916;27;20456;-77
2023/06/09 04:20:01;;;;;;;26.95;17.17;;;;;;;12.81;100.00;99332.72;5118826;27;20066;-76
2023/06/09 04:22:49;;;;;;;25.90;17.48;;;;;;;13.06;100.00;99334.72;5124163;27;20049;-76
2023/06/09 04:25:35;;;;;;;22.50;15.55;;;;;;;12.79;100.00;99333.94;5123058;27;20046;-76
2023/06/09 04:28:20;;;;;;;22.98;16.38;;;;;;;12.43;100.00;99341.16;5125133;27;20053;-76
2023/06/09 04:31:07;;;;;;;29.45;17.05;;;;;;;12.60;100.00;99346.88;5122398;27;20172;-76
2023/06/09 04:33:52;;;;;;;23.58;15.57;;;;;;;12.57;100.00;99342.00;5110686;27;20519;-76
2023/06/09 04:36:38;;;;;;;25.85;16.05;;;;;;;12.63;100.00;99349.13;5118265;27;20090;-76
2023/06/09 04:39:25;;;;;;;29.00;14.43;;;;;;;12.67;100.00;99342.44;5115764;27;20093;-76
2023/06/09 04:42:11;;;;;;;17.30;12.60;;;;;;;12.86;100.00;99340.00;5125501;27;20043;-76
2023/06/09 04:44:56;;;;;;;24.17;12.85;;;;;;;12.68;100.00;99346.69;5117683;27;20512;-76
2023/06/09 04:47:41;;;;;;;20.25;12.43;;;;;;;13.04;100.00;99342.03;5103947;27;20385;-76
2023/06/09 04:50:30;;;;;;;20.05;11.50;;;;;;;12.68;100.00;99353.78;5124582;27;20088;-76
2023/06/09 04:53:15;;;;;;;19.80;11.82;;;;;;;12.74;100.00;99357.41;5121329;27;20038;-76
2023/06/09 04:56:00;;;;;;;20.00;11.80;;;;;;;12.83;100.00;99340.41;5106125;27;20074;-76
2023/06/09 04:58:44;;;;;;;20.27;11.10;;;;;;;13.16;100.00;99360.69;5119028;27;20054;-76
2023/06/09 05:01:29;;;;;;;20.58;11.77;;;;;;;13.07;100.00;99364.53;5122807;27;20038;-76
2023/06/09 05:04:13;;;;;;;19.90;11.55;;;;;;;13.07;100.00;99354.00;5119703;27;20420;-76
2023/06/09 05:06:57;;;;;;;19.33;10.82;;;;;;;12.94;100.00;99352.97;5117587;27;20038;-76
2023/06/09 05:09:41;;;;;;;20.63;10.90;;;;;;;13.21;100.00;99358.25;5121087;27;20046;-76
2023/06/09 05:12:26;;;;;;;14.48;10.00;;;;;;;13.27;100.00;99360.06;5117863;27;20092;-76
2023/06/09 05:15:10;;;;;;;17.48;9.80;;;;;;;13.23;100.00;99361.50;5121165;27;20132;-77
2023/06/09 05:17:54;;;;;;;21.20;9.77;;;;;;;13.37;100.00;99357.03;5122711;27;20099;-76
2023/06/09 05:20:38;;;;;;;18.73;9.38;;;;;;;13.77;100.00;99347.44;5119172;27;20118;-76
2023/06/09 05:23:22;;;;;;;20.42;9.05;;;;;;;13.71;100.00;99362.25;5121217;27;20561;-76
2023/06/09 05:26:07;;;;;;;16.23;8.25;;;;;;;13.95;100.00;99355.50;5105746;27;20087;-77
2023/06/09 05:28:51;;;;;;;20.05;8.80;;;;;;;13.80;100.00;99353.13;5105776;27;20049;-77
2023/06/09 05:31:34;;;;;;;14.55;8.98;;;;;;;13.71;100.00;99357.81;5122377;27;20070;-76
2023/06/09 05:34:18;;;;;;;16.25;8.65;;;;;;;13.83;100.00;99365.88;5119111;27;20077;-77
2023/06/09 05:37:04;;;;;;;15.52;8.70;;;;;;;13.73;100.00;99349.66;5114490;27;20119;-76
2023/06/09 05:39:48;;;;;;;23.25;9.23;;;;;;;13.59;100.00;99366.56;5119491;27;20452;-76
2023/06/09 05:42:32;;;;;;;18.95;9.25;;;;;;;13.34;100.00;99352.16;5102247;27;20423;-76
2023/06/09 05:45:17;;;;;;;15.20;8.60;;;;;;;13.50;100.00;99353.56;5119318;27;20042;-77
2023/06/09 05:48:01;;;;;;;15.93;8.73;;;;;;;13.74;100.00;99353.94;5120824;27;20449;-76
2023/06/09 05:50:48;;;;;;;14.13;8.73;;;;;;;13.06;100.00;99373.47;5120667;27;20058;-76
2023/06/09 05:53:34;;;;;;;14.73;9.23;;;;;;;13.77;100.00;99360.63;5107247;27;20523;-76
2023/06/09 05:56:19;;;;;;;13.45;8.85;;;;;;;13.88;100.00;99357.34;5102515;27;20066;-76
2023/06/09 05:59:04;;;;;;;14.63;8.57;;;;;;;14.12;100.00;99373.50;5113521;27;20051;-77
2023/06/09 06:01:49;;;;;;;15.18;8.05;;;;;;;13.52;100.00;99390.31;5123350;27;20041;-77
2023/06/09 06:04:34;;;;;;;15.88;9.18;;;;;;;13.29;100.00;99365.94;5118331;27;20127;-76
2023/06/09 06:07:18;;;;;;;;;;;;;;;13.55;100.00;99379.34;5103553;28;20101;-75
2023/06/09 06:10:06;;;;;;;22.15;8.85;;;;;;;14.02;100.00;99373.13;5118401;27;20368;-75
2023/06/09 06:12:50;;;;;;;15.20;9.57;;;;;;;14.38;100.00;99366.47;5116822;27;20118;-76
2023/06/09 06:15:34;;;;;;;16.33;8.77;;;;;;;14.57;100.00;99359.47;5124133;27;20126;-76
2023/06/09 06:18:18;;;;;;;13.00;8.38;;;;;;;14.20;100.00;99369.81;5123927;27;20088;-76
2023/06/09 06:21:02;;;;;;;18.05;8.75;;;;;;;14.63;100.00;99376.28;5124951;27;20034;-76
2023/06/09 06:23:46;;;;;;;15.20;8.15;;;;;;;14.72;100.00;99377.69;5114627;27;20066;-76
2023/06/09 06:26:31;;;;;;;13.25;7.85;;;;;;;14.53;100.00;99353.78;5120579;27;20442;-77
2023/06/09 06:29:14;;;;;;;13.18;7.57;;;;;;;14.59;100.00;99373.28;5118505;27;20168;-78
2023/06/09 06:31:59;;;;;;;16.08;9.02;;;;;;;14.75;100.00;99371.97;5101056;28;20041;-75
2023/06/09 06:34:43;;;;;;;14.98;8.55;;;;;;;14.82;100.00;99366.66;5113816;28;20059;-76
2023/06/09 06:37:28;;;;;;;15.88;8.30;;;;;;;14.73;100.00;99367.91;5115825;28;20085;-75
2023/06/09 06:40:12;;;;;;;15.90;9.15;;;;;;;15.04;100.00;99353.06;5113049;28;20124;-75
2023/06/09 06:42:57;;;;;;;13.57;8.23;;;;;;;15.56;100.00;99369.47;5116807;28;20534;-79
2023/06/09 06:45:41;;;;;;;14.55;7.47;;;;;;;16.08;99.88;99378.91;5123656;28;20042;-77
2023/06/09 06:48:27;;;;;;;17.35;8.80;;;;;;;15.10;100.00;99366.22;5099033;28;20049;-77
2023/06/09 06:51:12;;;;;;;15.75;8.20;;;;;;;15.28;100.00;99367.31;5120535;27;20105;-77
2023/06/09 06:53:56;;;;;;;17.58;8.75;;;;;;;15.28;99.96;99370.75;5095978;28;20507;-77
2023/06/09 06:56:40;;;;;;;13.00;8.50;;;;;;;14.89;100.00;99377.97;5116444;28;20096;-75
2023/06/09 06:59:24;;;;;;;16.70;9.32;;;;;;;14.99;100.00;99378.31;5102717;28;20552;-77
2023/06/09 07:02:08;;;;;;;12.70;8.27;;;;;;;14.90;100.00;99369.00;5115244;28;20088;-76
2023/06/09 07:04:53;;;;;;;17.98;9.65;;;;;;;15.78;99.53;99369.03;5116689;28;20092;-78
2023/06/09 07:07:38;;;;;;;25.75;9.75;;;;;;;15.25;100.00;99370.38;5103619;28;20034;-76
2023/06/09 07:10:22;;;;;;;16.83;8.93;;;;;;;15.75;98.36;99364.19;5100121;28;20423;-77
2023/06/09 07:13:06;;;;;;;15.30;7.93;;;;;;;15.46;98.36;99357.78;5119401;27;20184;-76
2023/06/09 07:15:50;;;;;;;18.13;8.82;;;;;;;15.86;97.51;99354.72;5118762;27;20451;-76
2023/06/09 07:18:34;;;;;;;15.05;8.65;;;;;;;16.06;96.38;99351.84;5113390;28;20092;-75
2023/06/09 07:21:18;;;;;;;17.70;8.45;;;;;;;16.06;96.63;99351.84;5116280;28;20088;-76
2023/06/09 07:24:03;;;;;;;14.25;8.52;;;;;;;15.47;97.20;99356.75;5116678;28;20122;-76
2023/06/09 07:26:47;;;;;;;18.10;8.75;;;;;;;15.32;97.67;99368.47;5117451;28;20038;-76
2023/06/09 07:29:34;;;;;;;15.77;8.00;;;;;;;15.87;97.05;99361.63;5118058;28;20062;-77
2023/06/09 07:32:19;;;;;;;15.18;8.25;;;;;;;15.83;97.08;99363.88;5116467;28;20062;-77
2023/06/09 07:35:03;;;;;;;13.88;8.15;;;;;;;16.12;95.37;99353.63;5115952;28;20450;-78
2023/06/09 07:37:48;;;;;;;15.63;8.07;;;;;;;15.64;95.63;99356.97;5125810;27;20491;-79
2023/06/09 07:40:32;;;;;;;11.50;7.80;;;;;;;15.19;96.42;99361.47;5131740;27;20123;-80
2023/06/09 07:43:16;;;;;;;12.95;8.07;;;;;;;15.59;95.45;99364.78;5124411;27;20122;-80
2023/06/09 07:45:59;;;;;;;17.55;8.48;;;;;;;15.53;96.07;99377.84;5121251;27;20038;-80
2023/06/09 07:48:43;;;;;;;13.30;8.35;;;;;;;15.17;96.65;99371.47;5121148;27;20135;-79
2023/06/09 07:51:29;;;;;;;12.70;8.70;;;;;;;15.62;94.79;99366.97;5123381;27;20058;-79
2023/06/09 07:54:12;;;;;;;11.95;8.35;;;;;;;16.19;95.12;99368.59;5129879;27;20073;-80
2023/06/09 07:56:56;;;;;;;14.63;8.48;;;;;;;16.51;92.98;99379.78;5122556;27;20050;-80
2023/06/09 07:59:41;;;;;;;14.60;8.75;;;;;;;16.07;93.51;99360.59;5117183;27;20046;-79
2023/06/09 08:02:25;;;;;;;12.43;8.63;;;;;;;15.96;94.50;99364.81;5117152;27;20401;-81
2023/06/09 08:05:09;;;;;;;16.58;8.85;;;;;;;15.47;95.73;99373.41;5123584;27;20114;-78
2023/06/09 08:07:53;;;;;;;14.93;8.70;;;;;;;16.47;93.86;99369.84;5110669;27;20064;-78
2023/06/09 08:10:37;;;;;;;15.40;8.70;;;;;;;16.74;92.15;99386.19;5127868;27;20510;-78
2023/06/09 08:13:21;;;;;;;16.55;9.20;;;;;;;16.76;91.38;99362.13;5125757;27;20046;-78
2023/06/09 08:16:06;;;;;;;15.45;8.10;;;;;;;17.88;89.88;99385.31;5125622;27;20041;-78
2023/06/09 08:18:49;;;;;;;14.95;9.57;;;;;;;17.55;89.28;99376.94;5121369;27;20105;-78
2023/06/09 08:21:34;;;;;;;14.90;8.80;;;;;;;17.25;90.06;99380.53;5123824;27;20152;-79
2023/06/09 08:24:17;;;;;;;17.52;9.02;;;;;;;17.21;90.66;99384.69;5125253;27;20362;-78
2023/06/09 08:27:02;;;;;;;17.52;9.05;;;;;;;17.77;88.83;99366.53;5109459;27;20072;-78
2023/06/09 08:29:48;;;;;;;20.50;9.32;;;;;;;17.10;89.13;99373.84;5121525;27;20092;-78
2023/06/09 08:32:33;;;;;;;21.42;10.40;;;;;;;16.13;92.14;99371.13;5117129;27;20058;-78
2023/06/09 08:35:17;;;;;;;22.83;10.50;;;;;;;16.10;92.78;99363.59;5123166;27;20042;-77
2023/06/09 08:38:01;;;;;;;15.77;9.15;;;;;;;17.30;90.81;99362.09;5120266;27;20087;-81
2023/06/09 08:40:48;;;;;;;15.15;8.85;;;;;;;18.36;88.37;99365.59;5122359;27;20098;-80
2023/06/09 08:43:33;;;;;;;17.95;9.77;;;;;;;17.42;89.29;99356.78;5121408;27;20561;-81
2023/06/09 08:46:21;;;;;;;15.57;9.68;;;;;;;17.46;88.55;99355.25;5121663;27;20396;-80
2023/06/09 08:49:04;;;;;;;16.13;9.80;;;;;;;17.06;89.33;99353.31;5121342;27;20140;-81
2023/06/09 08:51:49;;;;;;;19.90;10.70;;;;;;;16.83;88.65;99360.97;5120936;27;20108;-80
2023/06/09 08:54:33;;;;;;;16.98;10.75;;;;;;;16.82;90.17;99355.91;5120003;27;21749;-80
2023/06/09 08:57:18;;;;;;;16.20;10.52;;;;;;;17.22;90.53;99365.09;5124699;27;20055;-80
2023/06/09 09:00:07;;;;;;;18.17;10.77;;;;;;;17.82;88.71;99361.34;5119043;27;20112;-81
2023/06/09 09:02:52;;;;;;;18.23;10.68;;;;;;;17.53;88.67;99353.31;5106617;27;20046;-81
2023/06/09 09:05:36;;;;;;;17.88;10.95;;;;;;;16.78;90.80;99344.13;5127805;27;20534;-81
2023/06/09 09:08:20;;;;;;;18.95;12.20;;;;;;;16.78;90.61;99333.53;5118180;27;20049;-81
2023/06/09 09:11:04;;;;;;;17.00;11.40;;;;;;;16.97;90.47;99355.44;5121580;27;20132;-80
2023/06/09 09:13:49;;;;;;;17.48;10.95;;;;;;;17.85;88.96;99344.13;5121729;27;20042;-80
2023/06/09 09:16:33;;;;;;;16.80;10.70;;;;;;;17.22;88.40;99338.56;5105576;27;20401;-80
2023/06/09 09:19:28;;;;;;;22.67;11.18;;;;;;;16.90;88.87;99346.81;5099677;27;20470;-82
2023/06/09 09:22:12;;;;;;;19.40;11.35;;;;;;;16.36;90.94;99343.13;5104608;27;20038;-81
2023/06/09 09:24:56;;;;;;;20.95;10.35;;;;;;;16.48;92.17;99339.69;5118099;27;20132;-87
2023/06/09 09:27:40;;;;;;;20.30;10.55;;;;;;;16.14;94.35;99332.19;5120836;27;20506;-79
2023/06/09 09:30:48;;;;;;;23.08;10.82;;;;;;;16.37;93.23;99341.25;5122782;27;20066;-79
2023/06/09 09:33:36;;;;;;;21.08;10.80;;;;;;;16.45;92.55;99338.31;5102327;27;20121;-79
2023/06/09 09:36:21;;;;;;;18.40;10.95;;;;;;;16.52;93.08;99330.25;5120322;27;20038;-81
2023/06/09 09:39:05;;;;;;;22.65;10.75;;;;;;;17.11;92.24;99345.50;5119704;27;20030;-81
2023/06/09 09:42:01;;;;;;;18.15;10.95;;;;;;;17.25;90.38;99340.75;5118010;27;20082;-80
2023/06/09 09:44:47;;;;;;;17.10;11.07;;;;;;;17.40;89.90;99337.63;5123239;27;20050;-81
2023/06/09 09:47:31;;;;;;;18.38;10.88;;;;;;;17.04;91.97;99342.94;5122921;27;20556;-81
2023/06/09 09:50:23;;;;;;;27.52;11.57;;;;;;;17.27;90.77;99331.50;5104499;27;20042;-82
2023/06/09 09:53:08;;;;;;;19.20;10.25;;;;;;;17.31;89.70;99336.38;5121838;27;20050;-83
2023/06/09 09:55:54;;;;;;;16.63;9.85;;;;;;;17.02;89.38;99333.59;5115735;27;20058;-80
2023/06/09 09:58:42;;;;;;;19.02;11.25;;;;;;;17.37;87.91;99315.00;5123718;27;20397;-80
2023/06/09 10:01:27;;;;;;;20.85;11.57;;;;;;;16.95;90.03;99334.47;5118448;27;20037;-82
2023/06/09 10:04:11;;;;;;;21.90;11.77;;;;;;;17.04;91.15;99334.16;5121114;27;20053;-82
2023/06/09 10:07:01;;;;;;;16.55;10.98;;;;;;;17.18;88.75;99314.34;5121642;27;20696;-82
2023/06/09 10:09:46;;;;;;;21.05;11.68;;;;;;;17.42;88.00;99317.78;5118570;27;20361;-81
2023/06/09 10:12:31;;;;;;;18.92;11.82;;;;;;;17.30;89.15;99326.81;5120037;27;20168;-81
2023/06/09 10:15:15;;;;;;;17.05;11.48;;;;;;;16.83;87.79;99317.75;5117942;27;20450;-79
2023/06/09 10:18:00;;;;;;;21.77;11.93;;;;;;;17.42;88.06;99311.66;5121093;27;20063;-81
2023/06/09 10:20:44;;;;;;;18.42;12.15;;;;;;;17.05;88.15;99325.16;5120586;28;20049;-79
2023/06/09 10:23:29;;;;;;;20.05;12.55;;;;;;;17.72;88.93;99316.00;5122278;27;20057;-81
2023/06/09 10:26:14;;;;;;;26.30;13.07;;;;;;;17.52;88.33;99324.34;5120614;27;20033;-80
2023/06/09 10:28:59;;;;;;;21.83;12.85;;;;;;;17.71;88.79;99325.00;5107244;27;20099;-79
2023/06/09 10:31:46;;;;;;;22.65;11.60;;;;;;;17.96;89.23;99310.63;5120179;27;20523;-81
2023/06/09 10:34:34;;;;;;;20.13;12.13;;;;;;;17.65;89.20;99299.38;5119172;27;20104;-82
2023/06/09 10:37:29;;;;;;;26.60;13.50;;;;;;;17.54;90.48;99307.16;5120018;27;20042;-80
2023/06/09 10:40:30;;;;;;;19.80;13.70;;;;;;;17.68;90.56;99298.91;5119023;28;20077;-84
2023/06/09 10:43:49;;;;;;;24.52;12.98;;;;;;;18.17;88.21;99300.41;5125476;28;20474;-83
2023/06/09 10:46:40;;;;;;;20.77;13.05;;;;;;;18.01;88.35;99310.72;5093886;28;20127;-83
2023/06/09 10:49:36;;;;;;;23.60;12.82;;;;;;;18.11;87.79;99304.81;5122481;28;20058;-83
2023/06/09 10:52:35;;;;;;;21.67;12.15;;;;;;;18.60;86.64;99298.22;5118645;28;20042;-83
2023/06/09 10:55:22;;;;;;;20.48;12.38;;;;;;;18.38;85.95;99288.28;5115571;28;20114;-83
2023/06/09 10:58:44;;;;;;;24.27;13.18;;;;;;;18.05;86.15;99300.44;5101168;28;20104;-83
2023/06/09 11:01:30;;;;;;;26.15;12.45;;;;;;;18.22;86.28;99279.22;5120623;28;20041;-83
2023/06/09 11:04:44;;;;;;;18.25;11.50;;;;;;;18.77;86.36;99292.88;5119671;28;20042;-84
2023/06/09 11:07:31;;;;;;;25.02;14.10;;;;;;;18.02;87.14;99288.44;5122933;28;20038;-81
2023/06/09 11:10:18;;;;;;;26.05;13.38;;;;;;;18.01;88.21;99308.06;5123374;28;20046;-81
2023/06/09 11:13:22;;;;;;;23.20;13.80;;;;;;;18.06;88.27;99294.09;5121393;27;20083;-81
2023/06/09 11:16:10;;;;;;;19.67;12.80;;;;;;;18.20;86.60;99284.81;5124350;27;20446;-80
2023/06/09 11:19:20;;;;;;;21.92;12.75;;;;;;;18.42;87.72;99300.84;5125286;27;20034;-81
2023/06/09 11:22:05;;;;;;;24.98;13.85;;;;;;;18.39;86.51;99290.69;5125898;27;20389;-80
2023/06/09 11:24:50;;;;;;;21.23;12.48;;;;;;;18.53;87.22;99293.03;5107129;27;20046;-81
2023/06/09 11:27:35;;;;;;;25.45;12.90;;;;;;;18.54;85.95;99287.47;5124896;27;20084;-81
2023/06/09 11:30:20;;;;;;;18.55;10.75;;;;;;;19.25;83.94;99274.72;5122637;27;20030;-80
2023/06/09 11:33:06;;;;;;;21.20;11.43;;;;;;;19.34;83.31;99283.06;5118253;27;20043;-81
2023/06/09 11:35:51;;;;;;;20.88;12.15;;;;;;;19.37;82.29;99274.59;5106438;27;20047;-81
2023/06/09 11:38:36;;;;;;;24.50;12.68;;;;;;;18.94;82.61;99291.03;5120537;27;20055;-81
2023/06/09 11:41:24;;;;;;;20.35;11.45;;;;;;;19.22;82.97;99280.53;5122735;27;20039;-81
2023/06/09 11:44:08;;;;;;;18.67;11.48;;;;;;;19.08;81.69;99266.78;5122296;27;20092;-81
2023/06/09 11:46:52;;;;;;;18.55;11.00;;;;;;;19.25;81.50;99266.72;5118972;27;20341;-80
2023/06/09 11:49:36;;;;;;;17.08;10.07;;;;;;;19.65;78.96;99256.81;5122330;27;20046;-81
2023/06/09 11:52:20;;;;;;;18.73;12.10;;;;;;;19.13;79.86;99264.19;5109752;27;20187;-81
2023/06/09 11:55:05;;;;;;;22.02;12.48;;;;;;;18.87;79.96;99260.31;5125002;27;20121;-80
2023/06/09 11:57:49;;;;;;;17.85;11.50;;;;;;;18.55;80.92;99248.41;5124667;27;20054;-81
2023/06/09 12:00:34;;;;;;;27.63;12.15;;;;;;;19.01;79.46;99251.00;5125810;27;20074;-81
2023/06/09 12:03:18;;;;;;;16.98;10.77;;;;;;;19.11;78.70;99258.31;5121763;27;20047;-80
2023/06/09 12:06:03;;;;;;;18.55;11.88;;;;;;;19.23;79.06;99258.97;5122105;27;20042;-80
2023/06/09 12:08:47;;;;;;;19.73;10.88;;;;;;;19.64;79.14;99257.88;5124498;27;20085;-80
2023/06/09 12:11:31;;;;;;;17.52;11.32;;;;;;;19.55;77.76;99245.00;5122660;27;20039;-82
2023/06/09 12:14:15;;;;;;;20.52;10.73;;;;;;;20.09;76.97;99243.47;5120695;27;20396;-81
2023/06/09 12:16:59;;;;;;;19.08;11.40;;;;;;;19.87;76.75;99256.78;5125732;27;20033;-81
2023/06/09 12:19:47;;;;;;;20.83;12.35;;;;;;;19.58;78.24;99248.22;5119049;27;20131;-82
2023/06/09 12:22:39;;;;;;;21.00;12.48;;;;;;;19.42;79.49;99258.69;5123791;27;20046;-81
2023/06/09 12:25:31;;;;;;;21.80;11.20;;;;;;;19.87;77.09;99250.66;5119074;27;20065;-81
2023/06/09 12:28:18;;;;;;;17.33;11.65;;;;;;;20.30;77.62;99251.63;5109432;27;20041;-81
2023/06/09 12:31:10;;;;;;;24.23;12.63;;;;;;;20.39;75.75;99247.44;5119244;27;20038;-81
2023/06/09 12:33:56;;;;;;;22.23;13.07;;;;;;;20.71;75.61;99237.00;5105004;27;20512;-81
2023/06/09 12:36:40;;;;;;;20.33;12.13;;;;;;;20.76;74.12;99227.16;5122413;27;20035;-81
2023/06/09 12:39:30;;;;;;;23.23;11.27;;;;;;;20.92;75.41;99230.75;5121238;27;20037;-81
2023/06/09 12:42:14;;;;;;;20.17;11.15;;;;;;;20.60;73.66;99234.25;5114949;27;20123;-81
2023/06/09 12:44:58;;;;;;;17.90;11.07;;;;;;;20.27;74.79;99223.63;5119173;27;20047;-81